Harpursville, NY (13787)

4:30 AM EDT on October 31, 2014 (GMT -0400)
Rattlesnake Mountain, West Windsor | Change Station
CLOSE
Current Station
Personal Weather Station
Location: Windsor, NY
Elevation: 1461 ft
Nearby Weather Stations

Elev 1461 ft 42.10 °N, 75.76 °W | Updated 2 seconds ago

Clear
Clear
28.7 °F
Feels Like 29 °F
N
0.0
Wind Variable Wind from East
Gusts 0.0 mph

Today
High -- | Low -- °F
--% Chance of Precip.
Yesterday
High -- | Low -- °F
Precip. -- in
7:34 AM 5:57 PM
First Quarter, 53% visible
Pressure 30.03 in
Visibility 9.0 miles
Clouds Clear
Windchill 29 °F
Dew Point 27 °F
Humidity 93%
Rainfall 0.00 in
Snow Depth Not available.
UV 0 out of 12
Pollen .80 out of 12
Air Quality Not available.
Flu Activity Not available.
METAR KBGM 310753Z AUTO 20003KT 9SM CLR M01/M02 A2999 RMK AO2 SLP168 T10061017

More Conditions Fewer Conditions

Pressure 30.03 in
Visibility 9.0 miles
Clouds Clear
Windchill 29 °F
Dew Point 27 °F
Humidity 93%
Rainfall 0.00 in
Snow Depth Not available.
UV 0 out of 12
Pollen .80 out of 12
Air Quality Not available.
Flu Activity Not available.
METAR KBGM 310753Z AUTO 20003KT 9SM CLR M01/M02 A2999 RMK AO2 SLP168 T10061017

More Conditions Fewer Conditions

10-Day Weather Forecast

Almanac

Astronomy

Oct. 31, 2014 Rise Set
Actual Time
Civil Twilight
Nautical Twilight
Astronomical Twilight
Moon
Length of Visible Light
Length of Day
Tomorrow will be .
, % of the Moon is Illuminated

Today's Extremes

State Highs State Lows

Community

WunderPhotos

Upload Photos

1,766,573 photos uploaded!

WunderBlogs® & News

Nearby

Air Quality

  Air Quality AQ Index Pollutant
Not available.

Snow Depth

Station Depth Elevation

Earthquake Activity

City Distance Mag. Time & Date
Minimum magnitude displayed is 2.5.

Coastal Water Temperatures

Place Temperature

Nearby Weather Stations